sensor_id;sensor_type;location;lat;lon;timestamp;pressure;altitude;pressure_sealevel;temperature;humidity
43814;BME280;29669;55.706;37.656;2022-12-20T00:00:25;101139.72;;;-1.31;nan
43814;BME280;29669;55.706;37.656;2022-12-20T00:06:01;101112.69;;;-1.35;nan
43814;BME280;29669;55.706;37.656;2022-12-20T00:08:56;101124.25;;;-1.27;nan
43814;BME280;29669;55.706;37.656;2022-12-20T00:17:20;101122.31;;;-1.20;nan
43814;BME280;29669;55.706;37.656;2022-12-20T00:20:08;101122.19;;;-1.17;nan
43814;BME280;29669;55.706;37.656;2022-12-20T00:25:44;101118.88;;;-1.19;nan
43814;BME280;29669;55.706;37.656;2022-12-20T00:28:32;101121.59;;;-1.24;nan
43814;BME280;29669;55.706;37.656;2022-12-20T00:31:22;101122.31;;;-1.20;nan
43814;BME280;29669;55.706;37.656;2022-12-20T00:34:11;101130.28;;;-1.29;nan
43814;BME280;29669;55.706;37.656;2022-12-20T00:39:48;101103.28;;;-1.33;nan
43814;BME280;29669;55.706;37.656;2022-12-20T00:42:35;101077.97;;;-1.38;nan
43814;BME280;29669;55.706;37.656;2022-12-20T00:48:11;101086.31;;;-1.34;nan
43814;BME280;29669;55.706;37.656;2022-12-20T00:53:54;101073.97;;;-1.22;nan
43814;BME280;29669;55.706;37.656;2022-12-20T00:59:30;101062.72;;;-1.16;nan
43814;BME280;29669;55.706;37.656;2022-12-20T01:02:19;101043.50;;;-1.25;nan
43814;BME280;29669;55.706;37.656;2022-12-20T01:07:57;101042.81;;;-1.28;nan
43814;BME280;29669;55.706;37.656;2022-12-20T01:10:59;101044.22;;;-1.43;nan
43814;BME280;29669;55.706;37.656;2022-12-20T01:16:40;101065.56;;;-1.47;nan
43814;BME280;29669;55.706;37.656;2022-12-20T01:22:16;101051.84;;;-1.43;nan
43814;BME280;29669;55.706;37.656;2022-12-20T01:25:04;101041.72;;;-1.44;nan
43814;BME280;29669;55.706;37.656;2022-12-20T01:27:53;101037.44;;;-1.44;nan
43814;BME280;29669;55.706;37.656;2022-12-20T01:30:41;101041.53;;;-1.40;nan
43814;BME280;29669;55.706;37.656;2022-12-20T01:39:09;101044.34;;;-1.46;nan
43814;BME280;29669;55.706;37.656;2022-12-20T01:41:57;101057.09;;;-1.47;nan
43814;BME280;29669;55.706;37.656;2022-12-20T01:44:53;101045.16;;;-1.45;nan
43814;BME280;29669;55.706;37.656;2022-12-20T01:47:42;101033.31;;;-1.46;nan
43814;BME280;29669;55.706;37.656;2022-12-20T01:50:30;101032.47;;;-1.47;nan
43814;BME280;29669;55.706;37.656;2022-12-20T02:01:44;101032.88;;;-1.57;nan
43814;BME280;29669;55.706;37.656;2022-12-20T02:04:33;101034.53;;;-1.56;nan
43814;BME280;29669;55.706;37.656;2022-12-20T02:07:24;101027.88;;;-1.60;nan
43814;BME280;29669;55.706;37.656;2022-12-20T02:10:13;101023.97;;;-1.69;nan
43814;BME280;29669;55.706;37.656;2022-12-20T02:13:09;101023.28;;;-1.74;nan
43814;BME280;29669;55.706;37.656;2022-12-20T02:18:59;101009.19;;;-1.82;nan
43814;BME280;29669;55.706;37.656;2022-12-20T02:22:35;101021.28;;;-1.89;nan
43814;BME280;29669;55.706;37.656;2022-12-20T02:34:55;101003.69;;;-2.18;nan
43814;BME280;29669;55.706;37.656;2022-12-20T02:40:39;100994.50;;;-2.22;nan
43814;BME280;29669;55.706;37.656;2022-12-20T02:43:30;100988.78;;;-2.29;nan
43814;BME280;29669;55.706;37.656;2022-12-20T02:46:38;100989.81;;;-2.34;nan
43814;BME280;29669;55.706;37.656;2022-12-20T02:49:31;100977.03;;;-2.33;nan
43814;BME280;29669;55.706;37.656;2022-12-20T02:52:22;100982.81;;;-2.28;nan
43814;BME280;29669;55.706;37.656;2022-12-20T03:00:58;100968.88;;;-2.41;nan
43814;BME280;29669;55.706;37.656;2022-12-20T03:03:51;100951.28;;;-2.47;nan
43814;BME280;29669;55.706;37.656;2022-12-20T03:07:05;100958.06;;;-2.47;nan
43814;BME280;29669;55.706;37.656;2022-12-20T03:09:53;100945.56;;;-2.53;nan
43814;BME280;29669;55.706;37.656;2022-12-20T03:12:41;100944.78;;;-2.55;nan
43814;BME280;29669;55.706;37.656;2022-12-20T03:15:29;100949.06;;;-2.56;nan
43814;BME280;29669;55.706;37.656;2022-12-20T03:21:08;100933.09;;;-2.59;nan
43814;BME280;29669;55.706;37.656;2022-12-20T03:23:56;100924.84;;;-2.66;nan
43814;BME280;29669;55.706;37.656;2022-12-20T03:26:44;100918.31;;;-2.73;nan
43814;BME280;29669;55.706;37.656;2022-12-20T03:29:32;100915.28;;;-2.84;nan
43814;BME280;29669;55.706;37.656;2022-12-20T03:32:21;100917.91;;;-2.87;nan
43814;BME280;29669;55.706;37.656;2022-12-20T03:35:09;100914.78;;;-2.94;nan
43814;BME280;29669;55.706;37.656;2022-12-20T03:37:59;100911.69;;;-3.03;nan
43814;BME280;29669;55.706;37.656;2022-12-20T03:46:27;100903.78;;;-3.20;nan
43814;BME280;29669;55.706;37.656;2022-12-20T03:49:16;100894.56;;;-3.23;nan
43814;BME280;29669;55.706;37.656;2022-12-20T03:52:13;100894.50;;;-3.21;nan
43814;BME280;29669;55.706;37.656;2022-12-20T03:55:03;100895.53;;;-3.27;nan
43814;BME280;29669;55.706;37.656;2022-12-20T03:57:59;100896.56;;;-3.32;nan
43814;BME280;29669;55.706;37.656;2022-12-20T04:00:51;100885.91;;;-3.43;nan
43814;BME280;29669;55.706;37.656;2022-12-20T04:03:56;100886.88;;;-3.47;nan
43814;BME280;29669;55.706;37.656;2022-12-20T04:06:44;100880.16;;;-3.48;nan
43814;BME280;29669;55.706;37.656;2022-12-20T04:09:32;100870.00;;;-3.48;nan
43814;BME280;29669;55.706;37.656;2022-12-20T04:12:28;100864.81;;;-3.45;nan
43814;BME280;29669;55.706;37.656;2022-12-20T04:15:17;100853.94;;;-3.49;nan
43814;BME280;29669;55.706;37.656;2022-12-20T04:18:07;100853.06;;;-3.48;nan
43814;BME280;29669;55.706;37.656;2022-12-20T04:20:59;100842.72;;;-3.42;nan
43814;BME280;29669;55.706;37.656;2022-12-20T04:23:50;100847.72;;;-3.39;nan
43814;BME280;29669;55.706;37.656;2022-12-20T04:26:39;100850.25;;;-3.39;nan
43814;BME280;29669;55.706;37.656;2022-12-20T04:29:29;100841.94;;;-3.44;nan
43814;BME280;29669;55.706;37.656;2022-12-20T04:32:18;100842.00;;;-3.45;nan
43814;BME280;29669;55.706;37.656;2022-12-20T04:35:07;100835.28;;;-3.48;nan
43814;BME280;29669;55.706;37.656;2022-12-20T04:41:11;100840.91;;;-3.38;nan
43814;BME280;29669;55.706;37.656;2022-12-20T04:44:29;100846.75;;;-3.36;nan
43814;BME280;29669;55.706;37.656;2022-12-20T04:47:18;100830.31;;;-3.51;nan
43814;BME280;29669;55.706;37.656;2022-12-20T04:50:09;100845.50;;;-3.49;nan
43814;BME280;29669;55.706;37.656;2022-12-20T04:53:11;100843.16;;;-3.55;nan
43814;BME280;29669;55.706;37.656;2022-12-20T04:56:22;100840.72;;;-3.58;nan
43814;BME280;29669;55.706;37.656;2022-12-20T04:59:12;100849.31;;;-3.62;nan
43814;BME280;29669;55.706;37.656;2022-12-20T05:05:08;100830.16;;;-3.72;nan
43814;BME280;29669;55.706;37.656;2022-12-20T05:08:02;100841.94;;;-3.70;nan
43814;BME280;29669;55.706;37.656;2022-12-20T05:10:50;100832.63;;;-3.69;nan
43814;BME280;29669;55.706;37.656;2022-12-20T05:13:39;100834.19;;;-3.65;nan
43814;BME280;29669;55.706;37.656;2022-12-20T05:16:27;100813.66;;;-3.59;nan
43814;BME280;29669;55.706;37.656;2022-12-20T05:19:15;100820.41;;;-3.58;nan
43814;BME280;29669;55.706;37.656;2022-12-20T05:22:04;100817.78;;;-3.55;nan
43814;BME280;29669;55.706;37.656;2022-12-20T05:25:23;100809.06;;;-3.47;nan
43814;BME280;29669;55.706;37.656;2022-12-20T05:28:44;100817.94;;;-3.34;nan
43814;BME280;29669;55.706;37.656;2022-12-20T05:31:32;100810.91;;;-3.27;nan
43814;BME280;29669;55.706;37.656;2022-12-20T05:34:21;100808.25;;;-3.23;nan
43814;BME280;29669;55.706;37.656;2022-12-20T05:37:12;100811.44;;;-3.18;nan
43814;BME280;29669;55.706;37.656;2022-12-20T05:40:02;100803.81;;;-3.16;nan
43814;BME280;29669;55.706;37.656;2022-12-20T05:42:52;100787.66;;;-3.15;nan
43814;BME280;29669;55.706;37.656;2022-12-20T05:45:51;100780.06;;;-3.15;nan
43814;BME280;29669;55.706;37.656;2022-12-20T05:48:49;100772.56;;;-3.18;nan
43814;BME280;29669;55.706;37.656;2022-12-20T05:51:37;100777.56;;;-3.17;nan
43814;BME280;29669;55.706;37.656;2022-12-20T05:54:36;100764.03;;;-3.17;nan
43814;BME280;29669;55.706;37.656;2022-12-20T05:57:44;100758.03;;;-3.15;nan
43814;BME280;29669;55.706;37.656;2022-12-20T06:00:36;100767.09;;;-3.08;nan
43814;BME280;29669;55.706;37.656;2022-12-20T06:03:24;100774.56;;;-3.03;nan
43814;BME280;29669;55.706;37.656;2022-12-20T06:06:13;100766.81;;;-3.00;nan
43814;BME280;29669;55.706;37.656;2022-12-20T06:09:05;100740.94;;;-3.10;nan
43814;BME280;29669;55.706;37.656;2022-12-20T06:14:52;100753.81;;;-2.91;nan
43814;BME280;29669;55.706;37.656;2022-12-20T06:20:29;100754.34;;;-2.83;nan
43814;BME280;29669;55.706;37.656;2022-12-20T06:23:19;100757.81;;;-2.84;nan
43814;BME280;29669;55.706;37.656;2022-12-20T06:26:16;100757.03;;;-2.86;nan
43814;BME280;29669;55.706;37.656;2022-12-20T06:29:08;100754.63;;;-2.91;nan
43814;BME280;29669;55.706;37.656;2022-12-20T06:32:05;100766.56;;;-2.93;nan
43814;BME280;29669;55.706;37.656;2022-12-20T06:34:53;100735.38;;;-2.96;nan
43814;BME280;29669;55.706;37.656;2022-12-20T06:37:41;100742.84;;;-2.92;nan
43814;BME280;29669;55.706;37.656;2022-12-20T06:40:29;100745.41;;;-2.93;nan
43814;BME280;29669;55.706;37.656;2022-12-20T06:43:20;100739.28;;;-2.88;nan
43814;BME280;29669;55.706;37.656;2022-12-20T06:46:08;100721.69;;;-2.92;nan
43814;BME280;29669;55.706;37.656;2022-12-20T06:51:45;100714.84;;;-2.90;nan
43814;BME280;29669;55.706;37.656;2022-12-20T06:54:33;100711.03;;;-3.02;nan
43814;BME280;29669;55.706;37.656;2022-12-20T06:57:21;100694.88;;;-3.01;nan
43814;BME280;29669;55.706;37.656;2022-12-20T07:00:11;100706.53;;;-2.95;nan
43814;BME280;29669;55.706;37.656;2022-12-20T07:02:59;100693.06;;;-2.97;nan
43814;BME280;29669;55.706;37.656;2022-12-20T07:11:26;100692.31;;;-2.99;nan
43814;BME280;29669;55.706;37.656;2022-12-20T07:14:14;100669.78;;;-3.08;nan
43814;BME280;29669;55.706;37.656;2022-12-20T07:17:02;100665.03;;;-3.17;nan
43814;BME280;29669;55.706;37.656;2022-12-20T07:19:51;100660.22;;;-3.25;nan
43814;BME280;29669;55.706;37.656;2022-12-20T07:22:38;100660.28;;;-3.26;nan
43814;BME280;29669;55.706;37.656;2022-12-20T07:25:27;100657.09;;;-3.31;nan
43814;BME280;29669;55.706;37.656;2022-12-20T07:28:15;100647.25;;;-3.40;nan
43814;BME280;29669;55.706;37.656;2022-12-20T07:31:03;100642.28;;;-3.43;nan
43814;BME280;29669;55.706;37.656;2022-12-20T07:33:51;100637.41;;;-3.49;nan
43814;BME280;29669;55.706;37.656;2022-12-20T07:36:39;100637.28;;;-3.45;nan
43814;BME280;29669;55.706;37.656;2022-12-20T07:42:15;100608.59;;;-3.47;nan
43814;BME280;29669;55.706;37.656;2022-12-20T07:47:55;100600.50;;;-3.35;nan
43814;BME280;29669;55.706;37.656;2022-12-20T07:50:57;100596.91;;;-3.29;nan
43814;BME280;29669;55.706;37.656;2022-12-20T07:59:45;100569.13;;;-3.32;nan
43814;BME280;29669;55.706;37.656;2022-12-20T08:05:24;100558.03;;;-3.30;nan
43814;BME280;29669;55.706;37.656;2022-12-20T08:08:14;100564.06;;;-3.32;nan
43814;BME280;29669;55.706;37.656;2022-12-20T08:11:03;100550.50;;;-3.31;nan
43814;BME280;29669;55.706;37.656;2022-12-20T08:13:53;100546.22;;;-3.31;nan
43814;BME280;29669;55.706;37.656;2022-12-20T08:16:44;100537.84;;;-3.33;nan
43814;BME280;29669;55.706;37.656;2022-12-20T08:19:33;100535.28;;;-3.31;nan
43814;BME280;29669;55.706;37.656;2022-12-20T08:22:21;100538.59;;;-3.31;nan
43814;BME280;29669;55.706;37.656;2022-12-20T08:25:12;100534.31;;;-3.29;nan
43814;BME280;29669;55.706;37.656;2022-12-20T08:28:00;100526.91;;;-3.35;nan
43814;BME280;29669;55.706;37.656;2022-12-20T08:30:50;100526.44;;;-3.44;nan
43814;BME280;29669;55.706;37.656;2022-12-20T08:33:39;100531.78;;;-3.52;nan
43814;BME280;29669;55.706;37.656;2022-12-20T08:36:27;100516.97;;;-3.62;nan
43814;BME280;29669;55.706;37.656;2022-12-20T08:39:15;100511.13;;;-3.64;nan
43814;BME280;29669;55.706;37.656;2022-12-20T08:42:04;100517.88;;;-3.63;nan
43814;BME280;29669;55.706;37.656;2022-12-20T08:44:52;100503.44;;;-3.63;nan
43814;BME280;29669;55.706;37.656;2022-12-20T08:47:40;100506.81;;;-3.62;nan
43814;BME280;29669;55.706;37.656;2022-12-20T08:50:28;100500.31;;;-3.69;nan
43814;BME280;29669;55.706;37.656;2022-12-20T08:53:16;100496.94;;;-3.70;nan
43814;BME280;29669;55.706;37.656;2022-12-20T08:56:09;100500.09;;;-3.63;nan
43814;BME280;29669;55.706;37.656;2022-12-20T08:58:57;100501.69;;;-3.61;nan
43814;BME280;29669;55.706;37.656;2022-12-20T09:01:45;100496.38;;;-3.55;nan
43814;BME280;29669;55.706;37.656;2022-12-20T09:04:33;100499.41;;;-3.45;nan
43814;BME280;29669;55.706;37.656;2022-12-20T09:07:21;100487.34;;;-3.39;nan
43814;BME280;29669;55.706;37.656;2022-12-20T09:12:57;100463.31;;;-3.30;nan
43814;BME280;29669;55.706;37.656;2022-12-20T09:15:46;100449.47;;;-3.23;nan
43814;BME280;29669;55.706;37.656;2022-12-20T09:24:09;100433.16;;;-3.18;nan
43814;BME280;29669;55.706;37.656;2022-12-20T09:26:57;100438.16;;;-3.15;nan
43814;BME280;29669;55.706;37.656;2022-12-20T09:29:45;100431.47;;;-3.17;nan
43814;BME280;29669;55.706;37.656;2022-12-20T09:32:33;100424.56;;;-3.14;nan
43814;BME280;29669;55.706;37.656;2022-12-20T09:35:20;100415.50;;;-2.99;nan
43814;BME280;29669;55.706;37.656;2022-12-20T09:38:10;100414.53;;;-2.97;nan
43814;BME280;29669;55.706;37.656;2022-12-20T09:41:00;100400.72;;;-2.90;nan
43814;BME280;29669;55.706;37.656;2022-12-20T09:43:50;100387.97;;;-2.88;nan
43814;BME280;29669;55.706;37.656;2022-12-20T09:46:40;100395.66;;;-2.90;nan
43814;BME280;29669;55.706;37.656;2022-12-20T09:49:32;100381.22;;;-2.89;nan
43814;BME280;29669;55.706;37.656;2022-12-20T09:59:03;100364.66;;;-2.59;nan
43814;BME280;29669;55.706;37.656;2022-12-20T10:01:52;100345.88;;;-2.55;nan
43814;BME280;29669;55.706;37.656;2022-12-20T10:04:42;100353.06;;;-2.26;nan
43814;BME280;29669;55.706;37.656;2022-12-20T10:07:40;100342.84;;;-1.53;nan
43814;BME280;29669;55.706;37.656;2022-12-20T10:17:26;100319.69;;;-0.16;nan
43814;BME280;29669;55.706;37.656;2022-12-20T10:26:22;100304.28;;;-1.28;nan
43814;BME280;29669;55.706;37.656;2022-12-20T10:29:10;100302.34;;;-1.23;nan
43814;BME280;29669;55.706;37.656;2022-12-20T10:38:02;100291.84;;;-2.04;nan
43814;BME280;29669;55.706;37.656;2022-12-20T10:41:00;100277.63;;;-2.25;nan
43814;BME280;29669;55.706;37.656;2022-12-20T10:49:49;100259.19;;;-2.49;nan
43814;BME280;29669;55.706;37.656;2022-12-20T10:55:33;100253.69;;;-2.40;nan
43814;BME280;29669;55.706;37.656;2022-12-20T10:58:33;100245.13;;;-2.37;nan
43814;BME280;29669;55.706;37.656;2022-12-20T11:01:30;100249.25;;;-2.35;nan
43814;BME280;29669;55.706;37.656;2022-12-20T11:07:24;100249.41;;;-2.21;nan
43814;BME280;29669;55.706;37.656;2022-12-20T11:13:05;100237.03;;;-2.10;nan
43814;BME280;29669;55.706;37.656;2022-12-20T11:22:05;100241.19;;;-2.26;nan
43814;BME280;29669;55.706;37.656;2022-12-20T11:38:12;100234.88;;;-2.92;nan
43814;BME280;29669;55.706;37.656;2022-12-20T11:44:16;100223.56;;;-3.23;nan
43814;BME280;29669;55.706;37.656;2022-12-20T11:53:29;100227.06;;;-3.46;nan
43814;BME280;29669;55.706;37.656;2022-12-20T11:56:29;100244.06;;;-3.48;nan
43814;BME280;29669;55.706;37.656;2022-12-20T11:59:37;100230.06;;;-3.56;nan
43814;BME280;29669;55.706;37.656;2022-12-20T12:05:38;100227.25;;;-3.70;nan
43814;BME280;29669;55.706;37.656;2022-12-20T12:08:40;100217.50;;;-3.79;nan
43814;BME280;29669;55.706;37.656;2022-12-20T12:11:33;100223.00;;;-3.90;nan
43814;BME280;29669;55.706;37.656;2022-12-20T12:17:56;100220.19;;;-4.04;nan
43814;BME280;29669;55.706;37.656;2022-12-20T12:23:44;100207.81;;;-4.12;nan
43814;BME280;29669;55.706;37.656;2022-12-20T12:29:23;100208.81;;;-4.16;nan
43814;BME280;29669;55.706;37.656;2022-12-20T12:32:25;100200.59;;;-4.21;nan
43814;BME280;29669;55.706;37.656;2022-12-20T12:44:52;100221.84;;;-4.25;nan
43814;BME280;29669;55.706;37.656;2022-12-20T12:51:25;100216.03;;;-4.27;nan
43814;BME280;29669;55.706;37.656;2022-12-20T12:54:21;100222.00;;;-4.28;nan
43814;BME280;29669;55.706;37.656;2022-12-20T12:57:16;100216.97;;;-4.29;nan
43814;BME280;29669;55.706;37.656;2022-12-20T13:03:35;100219.63;;;-4.32;nan
43814;BME280;29669;55.706;37.656;2022-12-20T13:18:23;100208.78;;;-4.36;nan
43814;BME280;29669;55.706;37.656;2022-12-20T13:24:27;100216.97;;;-4.29;nan
43814;BME280;29669;55.706;37.656;2022-12-20T13:27:36;100198.53;;;-4.33;nan
43814;BME280;29669;55.706;37.656;2022-12-20T13:30:26;100202.72;;;-4.32;nan
43814;BME280;29669;55.706;37.656;2022-12-20T13:33:23;100203.34;;;-4.27;nan
43814;BME280;29669;55.706;37.656;2022-12-20T13:39:01;100199.28;;;-4.31;nan
43814;BME280;29669;55.706;37.656;2022-12-20T13:42:54;100195.75;;;-4.27;nan
43814;BME280;29669;55.706;37.656;2022-12-20T13:45:17;100191.69;;;-4.31;nan
43814;BME280;29669;55.706;37.656;2022-12-20T13:48:06;100188.22;;;-4.28;nan
43814;BME280;29669;55.706;37.656;2022-12-20T13:50:58;100202.47;;;-4.26;nan
43814;BME280;29669;55.706;37.656;2022-12-20T13:56:48;100200.75;;;-4.25;nan
43814;BME280;29669;55.706;37.656;2022-12-20T13:59:36;100198.28;;;-4.27;nan
43814;BME280;29669;55.706;37.656;2022-12-20T14:05:23;100198.41;;;-4.30;nan
43814;BME280;29669;55.706;37.656;2022-12-20T14:08:16;100204.50;;;-4.34;nan
43814;BME280;29669;55.706;37.656;2022-12-20T14:11:15;100211.31;;;-4.36;nan
43814;BME280;29669;55.706;37.656;2022-12-20T14:14:11;100191.75;;;-4.32;nan
43814;BME280;29669;55.706;37.656;2022-12-20T14:23:10;100191.06;;;-4.36;nan
43814;BME280;29669;55.706;37.656;2022-12-20T14:28:49;100172.06;;;-4.47;nan
43814;BME280;29669;55.706;37.656;2022-12-20T14:31:40;100170.38;;;-4.47;nan
43814;BME280;29669;55.706;37.656;2022-12-20T14:34:31;100178.00;;;-4.48;nan
43814;BME280;29669;55.706;37.656;2022-12-20T14:37:33;100178.91;;;-4.49;nan
43814;BME280;29669;55.706;37.656;2022-12-20T14:40:26;100187.34;;;-4.49;nan
43814;BME280;29669;55.706;37.656;2022-12-20T14:43:27;100180.69;;;-4.51;nan
43814;BME280;29669;55.706;37.656;2022-12-20T14:46:19;100189.94;;;-4.50;nan
43814;BME280;29669;55.706;37.656;2022-12-20T14:49:29;100182.34;;;-4.50;nan
43814;BME280;29669;55.706;37.656;2022-12-20T14:55:38;100192.72;;;-4.58;nan
43814;BME280;29669;55.706;37.656;2022-12-20T14:58:33;100178.13;;;-4.73;nan
43814;BME280;29669;55.706;37.656;2022-12-20T15:01:24;100176.91;;;-4.85;nan
43814;BME280;29669;55.706;37.656;2022-12-20T15:04:22;100181.97;;;-4.85;nan
43814;BME280;29669;55.706;37.656;2022-12-20T15:07:28;100193.88;;;-4.88;nan
43814;BME280;29669;55.706;37.656;2022-12-20T15:10:19;100179.88;;;-4.97;nan
43814;BME280;29669;55.706;37.656;2022-12-20T15:13:13;100181.69;;;-5.00;nan
43814;BME280;29669;55.706;37.656;2022-12-20T15:21:49;100193.94;;;-5.13;nan
43814;BME280;29669;55.706;37.656;2022-12-20T15:24:38;100197.56;;;-5.20;nan
43814;BME280;29669;55.706;37.656;2022-12-20T15:30:15;100202.13;;;-5.29;nan
43814;BME280;29669;55.706;37.656;2022-12-20T15:33:02;100204.09;;;-5.37;nan
43814;BME280;29669;55.706;37.656;2022-12-20T15:35:52;100200.84;;;-5.41;nan
43814;BME280;29669;55.706;37.656;2022-12-20T15:38:40;100193.31;;;-5.42;nan
43814;BME280;29669;55.706;37.656;2022-12-20T15:41:48;100191.97;;;-5.52;nan
43814;BME280;29669;55.706;37.656;2022-12-20T15:44:37;100186.19;;;-5.56;nan
43814;BME280;29669;55.706;37.656;2022-12-20T15:50:12;100197.97;;;-5.55;nan
43814;BME280;29669;55.706;37.656;2022-12-20T15:53:00;100193.84;;;-5.57;nan
43814;BME280;29669;55.706;37.656;2022-12-20T15:55:50;100176.28;;;-5.62;nan
43814;BME280;29669;55.706;37.656;2022-12-20T16:07:18;100168.06;;;-5.67;nan
43814;BME280;29669;55.706;37.656;2022-12-20T16:12:57;100168.69;;;-5.60;nan
43814;BME280;29669;55.706;37.656;2022-12-20T16:15:45;100177.81;;;-5.56;nan
43814;BME280;29669;55.706;37.656;2022-12-20T16:18:33;100177.81;;;-5.56;nan
43814;BME280;29669;55.706;37.656;2022-12-20T16:21:24;100175.16;;;-5.53;nan
43814;BME280;29669;55.706;37.656;2022-12-20T16:24:17;100178.34;;;-5.48;nan
43814;BME280;29669;55.706;37.656;2022-12-20T16:27:05;100179.34;;;-5.52;nan
43814;BME280;29669;55.706;37.656;2022-12-20T16:29:53;100175.88;;;-5.50;nan
43814;BME280;29669;55.706;37.656;2022-12-20T16:32:41;100169.06;;;-5.48;nan
43814;BME280;29669;55.706;37.656;2022-12-20T16:35:32;100174.06;;;-5.46;nan
43814;BME280;29669;55.706;37.656;2022-12-20T16:38:20;100173.88;;;-5.40;nan
43814;BME280;29669;55.706;37.656;2022-12-20T16:41:15;100170.22;;;-5.33;nan
43814;BME280;29669;55.706;37.656;2022-12-20T16:44:03;100155.94;;;-5.34;nan
43814;BME280;29669;55.706;37.656;2022-12-20T16:46:51;100169.94;;;-5.24;nan
43814;BME280;29669;55.706;37.656;2022-12-20T16:49:39;100174.81;;;-5.20;nan
43814;BME280;29669;55.706;37.656;2022-12-20T16:52:33;100168.09;;;-5.21;nan
43814;BME280;29669;55.706;37.656;2022-12-20T16:55:25;100177.28;;;-5.18;nan
43814;BME280;29669;55.706;37.656;2022-12-20T16:58:13;100184.78;;;-5.15;nan
43814;BME280;29669;55.706;37.656;2022-12-20T17:03:50;100187.38;;;-5.17;nan
43814;BME280;29669;55.706;37.656;2022-12-20T17:06:38;100185.84;;;-5.22;nan
43814;BME280;29669;55.706;37.656;2022-12-20T17:09:25;100182.59;;;-5.24;nan
43814;BME280;29669;55.706;37.656;2022-12-20T17:17:53;100188.19;;;-5.39;nan
43814;BME280;29669;55.706;37.656;2022-12-20T17:20:41;100178.31;;;-5.47;nan
43814;BME280;29669;55.706;37.656;2022-12-20T17:23:29;100183.47;;;-5.50;nan
43814;BME280;29669;55.706;37.656;2022-12-20T17:26:26;100186.00;;;-5.50;nan
43814;BME280;29669;55.706;37.656;2022-12-20T17:29:14;100182.75;;;-5.53;nan
43814;BME280;29669;55.706;37.656;2022-12-20T17:32:15;100172.75;;;-5.56;nan
43814;BME280;29669;55.706;37.656;2022-12-20T17:35:05;100173.03;;;-5.65;nan
43814;BME280;29669;55.706;37.656;2022-12-20T17:37:54;100175.56;;;-5.65;nan
43814;BME280;29669;55.706;37.656;2022-12-20T17:40:43;100169.75;;;-5.67;nan
43814;BME280;29669;55.706;37.656;2022-12-20T17:43:31;100178.22;;;-5.68;nan
43814;BME280;29669;55.706;37.656;2022-12-20T17:46:20;100172.25;;;-5.66;nan
43814;BME280;29669;55.706;37.656;2022-12-20T17:49:08;100161.38;;;-5.69;nan
43814;BME280;29669;55.706;37.656;2022-12-20T17:51:56;100173.16;;;-5.68;nan
43814;BME280;29669;55.706;37.656;2022-12-20T17:54:43;100172.38;;;-5.70;nan
43814;BME280;29669;55.706;37.656;2022-12-20T17:57:31;100162.41;;;-5.75;nan
43814;BME280;29669;55.706;37.656;2022-12-20T18:00:22;100166.34;;;-5.66;nan
43814;BME280;29669;55.706;37.656;2022-12-20T18:03:10;100171.22;;;-5.60;nan
43814;BME280;29669;55.706;37.656;2022-12-20T18:06:17;100156.91;;;-5.61;nan
43814;BME280;29669;55.706;37.656;2022-12-20T18:09:11;100179.38;;;-5.54;nan
43814;BME280;29669;55.706;37.656;2022-12-20T18:11:59;100175.38;;;-5.59;nan
43814;BME280;29669;55.706;37.656;2022-12-20T18:14:48;100178.69;;;-5.57;nan
43814;BME280;29669;55.706;37.656;2022-12-20T18:17:36;100165.56;;;-5.68;nan
43814;BME280;29669;55.706;37.656;2022-12-20T18:20:25;100170.53;;;-5.65;nan
43814;BME280;29669;55.706;37.656;2022-12-20T18:23:13;100161.63;;;-5.76;nan
43814;BME280;29669;55.706;37.656;2022-12-20T18:26:20;100168.88;;;-5.66;nan
43814;BME280;29669;55.706;37.656;2022-12-20T18:29:08;100168.25;;;-5.73;nan
43814;BME280;29669;55.706;37.656;2022-12-20T18:31:59;100169.19;;;-5.76;nan
43814;BME280;29669;55.706;37.656;2022-12-20T18:37:35;100159.88;;;-5.75;nan
43814;BME280;29669;55.706;37.656;2022-12-20T18:43:12;100161.63;;;-5.76;nan
43814;BME280;29669;55.706;37.656;2022-12-20T18:48:53;100169.84;;;-5.70;nan
43814;BME280;29669;55.706;37.656;2022-12-20T18:51:41;100165.56;;;-5.68;nan
43814;BME280;29669;55.706;37.656;2022-12-20T18:54:30;100160.84;;;-5.53;nan
43814;BME280;29669;55.706;37.656;2022-12-20T18:57:18;100155.19;;;-5.36;nan
43814;BME280;29669;55.706;37.656;2022-12-20T19:00:06;100159.81;;;-5.24;nan
43814;BME280;29669;55.706;37.656;2022-12-20T19:02:55;100173.25;;;-5.24;nan
43814;BME280;29669;55.706;37.656;2022-12-20T19:05:50;100168.47;;;-5.31;nan
43814;BME280;29669;55.706;37.656;2022-12-20T19:11:27;100168.03;;;-5.42;nan
43814;BME280;29669;55.706;37.656;2022-12-20T19:17:07;100157.59;;;-5.56;nan
43814;BME280;29669;55.706;37.656;2022-12-20T19:19:55;100168.34;;;-5.51;nan
43814;BME280;29669;55.706;37.656;2022-12-20T19:22:44;100168.44;;;-5.54;nan
43814;BME280;29669;55.706;37.656;2022-12-20T19:25:34;100168.44;;;-5.54;nan
43814;BME280;29669;55.706;37.656;2022-12-20T19:28:24;100166.94;;;-5.58;nan
43814;BME280;29669;55.706;37.656;2022-12-20T19:31:35;100150.53;;;-5.71;nan
43814;BME280;29669;55.706;37.656;2022-12-20T19:34:25;100173.75;;;-5.60;nan
43814;BME280;29669;55.706;37.656;2022-12-20T19:37:13;100169.44;;;-5.58;nan
43814;BME280;29669;55.706;37.656;2022-12-20T19:40:05;100158.56;;;-5.60;nan
43814;BME280;29669;55.706;37.656;2022-12-20T19:42:58;100175.81;;;-5.48;nan
43814;BME280;29669;55.706;37.656;2022-12-20T19:45:48;100162.47;;;-5.52;nan
43814;BME280;29669;55.706;37.656;2022-12-20T19:48:36;100183.72;;;-5.33;nan
43814;BME280;29669;55.706;37.656;2022-12-20T19:51:26;100172.22;;;-5.18;nan
43814;BME280;29669;55.706;37.656;2022-12-20T19:54:14;100166.16;;;-5.14;nan
43814;BME280;29669;55.706;37.656;2022-12-20T19:59:50;100163.91;;;-4.99;nan
43814;BME280;29669;55.706;37.656;2022-12-20T20:02:42;100175.50;;;-4.93;nan
43814;BME280;29669;55.706;37.656;2022-12-20T20:05:33;100166.59;;;-5.03;nan
43814;BME280;29669;55.706;37.656;2022-12-20T20:08:21;100170.84;;;-5.04;nan